sensor_id;sensor_type;location;lat;lon;timestamp;pressure;altitude;pressure_sealevel;temperature;humidity
11672;BME280;5892;43.412;24.612;2023-03-14T00:02:19;100069.22;;;2.48;72.64
11672;BME280;5892;43.412;24.612;2023-03-14T00:04:56;100226.91;;;3.53;70.92
11672;BME280;5892;43.412;24.612;2023-03-14T00:07:24;100215.25;;;3.52;70.83
11672;BME280;5892;43.412;24.612;2023-03-14T00:09:53;100216.88;;;3.43;68.63
11672;BME280;5892;43.412;24.612;2023-03-14T00:12:43;100119.59;;;2.59;68.36
11672;BME280;5892;43.412;24.612;2023-03-14T00:15:12;100107.88;;;2.43;68.23
11672;BME280;5892;43.412;24.612;2023-03-14T00:17:55;100211.59;;;3.16;68.45
11672;BME280;5892;43.412;24.612;2023-03-14T00:20:46;100169.72;;;2.72;69.19
11672;BME280;5892;43.412;24.612;2023-03-14T00:23:13;100204.63;;;3.30;69.02
11672;BME280;5892;43.412;24.612;2023-03-14T00:25:41;100142.94;;;2.75;69.23
11672;BME280;5892;43.412;24.612;2023-03-14T00:28:08;100016.72;;;1.92;69.25
11672;BME280;5892;43.412;24.612;2023-03-14T00:30:37;100058.81;;;2.20;69.54
11672;BME280;5892;43.412;24.612;2023-03-14T00:33:08;100196.44;;;3.20;69.93
11672;BME280;5892;43.412;24.612;2023-03-14T00:35:39;100128.03;;;2.78;71.09
11672;BME280;5892;43.412;24.612;2023-03-14T00:38:08;100209.38;;;3.03;72.50
11672;BME280;5892;43.412;24.612;2023-03-14T00:40:39;99990.84;;;2.01;72.37
11672;BME280;5892;43.412;24.612;2023-03-14T00:43:07;100084.63;;;2.47;72.85
11672;BME280;5892;43.412;24.612;2023-03-14T00:45:35;100036.44;;;1.87;73.03
11672;BME280;5892;43.412;24.612;2023-03-14T00:48:02;99989.88;;;1.75;73.38
11672;BME280;5892;43.412;24.612;2023-03-14T00:50:33;100164.63;;;2.85;73.30
11672;BME280;5892;43.412;24.612;2023-03-14T00:53:03;100024.41;;;1.73;73.16
11672;BME280;5892;43.412;24.612;2023-03-14T00:55:36;100113.03;;;2.45;73.76
11672;BME280;5892;43.412;24.612;2023-03-14T00:58:04;100185.22;;;2.91;74.34
11672;BME280;5892;43.412;24.612;2023-03-14T01:00:35;100004.66;;;1.67;74.14
11672;BME280;5892;43.412;24.612;2023-03-14T01:03:05;100100.50;;;2.34;74.04
11672;BME280;5892;43.412;24.612;2023-03-14T01:05:34;99980.28;;;1.57;73.87
11672;BME280;5892;43.412;24.612;2023-03-14T01:08:03;100018.41;;;1.61;74.89
11672;BME280;5892;43.412;24.612;2023-03-14T01:10:33;100062.34;;;1.83;76.44
11672;BME280;5892;43.412;24.612;2023-03-14T01:13:05;100017.16;;;1.42;77.03
11672;BME280;5892;43.412;24.612;2023-03-14T01:15:34;100167.06;;;2.40;78.01
11672;BME280;5892;43.412;24.612;2023-03-14T01:18:04;100156.41;;;2.23;79.35
11672;BME280;5892;43.412;24.612;2023-03-14T01:20:34;99998.63;;;0.92;80.72
11672;BME280;5892;43.412;24.612;2023-03-14T01:23:08;99977.44;;;1.05;80.30
11672;BME280;5892;43.412;24.612;2023-03-14T01:25:41;100014.09;;;1.28;80.61
11672;BME280;5892;43.412;24.612;2023-03-14T01:28:08;99989.94;;;1.16;80.67
11672;BME280;5892;43.412;24.612;2023-03-14T01:30:39;100089.09;;;1.85;80.26
11672;BME280;5892;43.412;24.612;2023-03-14T01:33:09;100097.09;;;2.06;79.37
11672;BME280;5892;43.412;24.612;2023-03-14T01:35:42;100063.09;;;1.79;79.12
11672;BME280;5892;43.412;24.612;2023-03-14T01:38:10;100154.63;;;2.39;79.19
11672;BME280;5892;43.412;24.612;2023-03-14T01:40:43;100153.25;;;2.36;78.69
11672;BME280;5892;43.412;24.612;2023-03-14T01:43:16;99992.44;;;1.23;78.69
11672;BME280;5892;43.412;24.612;2023-03-14T01:46:17;100151.13;;;2.43;78.80
11672;BME280;5892;43.412;24.612;2023-03-14T01:48:59;100067.09;;;1.71;78.67
11672;BME280;5892;43.412;24.612;2023-03-14T01:51:34;99983.81;;;1.26;78.43
11672;BME280;5892;43.412;24.612;2023-03-14T01:54:10;100108.16;;;2.05;78.16
11672;BME280;5892;43.412;24.612;2023-03-14T01:56:43;99989.50;;;1.24;78.02
11672;BME280;5892;43.412;24.612;2023-03-14T01:59:27;100004.72;;;1.36;78.64
11672;BME280;5892;43.412;24.612;2023-03-14T02:02:32;100166.25;;;2.39;78.85
11672;BME280;5892;43.412;24.612;2023-03-14T02:05:00;100069.72;;;1.93;79.00
11672;BME280;5892;43.412;24.612;2023-03-14T02:07:36;100064.09;;;1.67;78.47
11672;BME280;5892;43.412;24.612;2023-03-14T02:10:09;99993.63;;;1.05;78.75
11672;BME280;5892;43.412;24.612;2023-03-14T02:12:39;99961.69;;;0.92;78.89
11672;BME280;5892;43.412;24.612;2023-03-14T02:15:08;99952.38;;;0.78;79.05
11672;BME280;5892;43.412;24.612;2023-03-14T02:17:36;99947.25;;;0.76;78.91
11672;BME280;5892;43.412;24.612;2023-03-14T02:20:14;100047.53;;;1.27;78.26
11672;BME280;5892;43.412;24.612;2023-03-14T02:22:52;99975.50;;;0.74;77.81
11672;BME280;5892;43.412;24.612;2023-03-14T02:25:26;100141.34;;;1.68;78.83
11672;BME280;5892;43.412;24.612;2023-03-14T02:27:58;100032.38;;;0.67;79.02
11672;BME280;5892;43.412;24.612;2023-03-14T02:30:28;100123.63;;;1.51;78.99
11672;BME280;5892;43.412;24.612;2023-03-14T02:32:59;100005.00;;;0.59;79.06
11672;BME280;5892;43.412;24.612;2023-03-14T02:35:31;100144.56;;;1.39;79.90
11672;BME280;5892;43.412;24.612;2023-03-14T02:38:05;100068.25;;;0.95;79.79
11672;BME280;5892;43.412;24.612;2023-03-14T02:40:35;100148.38;;;1.43;79.79
11672;BME280;5892;43.412;24.612;2023-03-14T02:43:05;100055.69;;;0.78;79.49
11672;BME280;5892;43.412;24.612;2023-03-14T02:45:39;100047.19;;;0.92;79.46
11672;BME280;5892;43.412;24.612;2023-03-14T02:48:13;100101.72;;;1.20;79.09
11672;BME280;5892;43.412;24.612;2023-03-14T02:50:57;100009.50;;;0.75;79.89
11672;BME280;5892;43.412;24.612;2023-03-14T02:53:29;100074.75;;;0.94;79.95
11672;BME280;5892;43.412;24.612;2023-03-14T02:55:57;99923.44;;;0.20;80.42
11672;BME280;5892;43.412;24.612;2023-03-14T02:58:26;99978.91;;;0.64;79.92
11672;BME280;5892;43.412;24.612;2023-03-14T03:00:54;100055.56;;;0.95;79.70
11672;BME280;5892;43.412;24.612;2023-03-14T03:03:22;100102.44;;;1.38;79.91
11672;BME280;5892;43.412;24.612;2023-03-14T03:05:50;100038.03;;;0.93;79.05
11672;BME280;5892;43.412;24.612;2023-03-14T03:08:19;99962.41;;;0.34;79.63
11672;BME280;5892;43.412;24.612;2023-03-14T03:10:48;99910.75;;;0.42;79.72
11672;BME280;5892;43.412;24.612;2023-03-14T03:13:18;100069.47;;;1.31;79.76
11672;BME280;5892;43.412;24.612;2023-03-14T03:16:26;99921.63;;;0.25;79.79
11672;BME280;5892;43.412;24.612;2023-03-14T03:18:53;99907.50;;;0.40;79.40
11672;BME280;5892;43.412;24.612;2023-03-14T03:21:35;100108.84;;;1.58;79.67
11672;BME280;5892;43.412;24.612;2023-03-14T03:24:08;99988.50;;;0.77;79.98
11672;BME280;5892;43.412;24.612;2023-03-14T03:26:36;100094.53;;;1.58;79.79
11672;BME280;5892;43.412;24.612;2023-03-14T03:29:04;99961.34;;;0.57;79.76
11672;BME280;5892;43.412;24.612;2023-03-14T03:31:50;99999.25;;;0.72;80.18
11672;BME280;5892;43.412;24.612;2023-03-14T03:34:28;100033.84;;;1.07;80.36
11672;BME280;5892;43.412;24.612;2023-03-14T03:36:57;99905.25;;;0.32;80.65
11672;BME280;5892;43.412;24.612;2023-03-14T03:39:39;100028.78;;;1.15;81.24
11672;BME280;5892;43.412;24.612;2023-03-14T03:42:07;99938.97;;;0.34;81.57
11672;BME280;5892;43.412;24.612;2023-03-14T03:44:37;100052.34;;;1.20;81.79
11672;BME280;5892;43.412;24.612;2023-03-14T03:47:18;100017.84;;;1.00;82.08
11672;BME280;5892;43.412;24.612;2023-03-14T03:49:47;100026.44;;;0.92;82.14
11672;BME280;5892;43.412;24.612;2023-03-14T03:52:14;99943.00;;;0.10;82.75
11672;BME280;5892;43.412;24.612;2023-03-14T03:54:45;99971.19;;;0.46;82.65
11672;BME280;5892;43.412;24.612;2023-03-14T03:57:13;99942.78;;;0.38;82.44
11672;BME280;5892;43.412;24.612;2023-03-14T03:59:42;99992.16;;;0.66;82.10
11672;BME280;5892;43.412;24.612;2023-03-14T04:02:10;99935.03;;;0.20;81.94
11672;BME280;5892;43.412;24.612;2023-03-14T04:04:43;99990.28;;;0.45;81.55
11672;BME280;5892;43.412;24.612;2023-03-14T04:07:12;99888.38;;;0.15;81.45
11672;BME280;5892;43.412;24.612;2023-03-14T04:09:44;100011.59;;;0.68;81.85
11672;BME280;5892;43.412;24.612;2023-03-14T04:12:15;99865.00;;;-0.02;81.47
11672;BME280;5892;43.412;24.612;2023-03-14T04:14:45;99944.25;;;0.24;82.18
11672;BME280;5892;43.412;24.612;2023-03-14T04:17:23;99847.22;;;-0.24;82.21
11672;BME280;5892;43.412;24.612;2023-03-14T04:19:52;99975.13;;;0.17;83.05
11672;BME280;5892;43.412;24.612;2023-03-14T04:22:22;99897.81;;;-0.05;83.51
11672;BME280;5892;43.412;24.612;2023-03-14T04:24:49;99856.06;;;-0.07;82.45
11672;BME280;5892;43.412;24.612;2023-03-14T04:27:21;99970.34;;;0.67;81.99
11672;BME280;5892;43.412;24.612;2023-03-14T04:29:53;100058.13;;;1.34;82.46
11672;BME280;5892;43.412;24.612;2023-03-14T04:32:30;99913.69;;;0.14;82.25
11672;BME280;5892;43.412;24.612;2023-03-14T04:38:24;99914.91;;;0.28;82.25
11672;BME280;5892;43.412;24.612;2023-03-14T04:41:02;99975.94;;;0.88;82.44
11672;BME280;5892;43.412;24.612;2023-03-14T04:43:36;99890.25;;;0.14;82.27
11672;BME280;5892;43.412;24.612;2023-03-14T04:46:13;99978.22;;;0.74;82.76
11672;BME280;5892;43.412;24.612;2023-03-14T04:48:41;99894.78;;;0.35;82.78
11672;BME280;5892;43.412;24.612;2023-03-14T04:51:08;100061.13;;;1.69;82.36
11672;BME280;5892;43.412;24.612;2023-03-14T04:53:38;100000.00;;;1.58;81.60
11672;BME280;5892;43.412;24.612;2023-03-14T04:56:07;99867.28;;;0.92;80.14
11672;BME280;5892;43.412;24.612;2023-03-14T04:58:50;99907.81;;;1.02;79.61
11672;BME280;5892;43.412;24.612;2023-03-14T05:01:27;99917.91;;;1.17;78.28
11672;BME280;5892;43.412;24.612;2023-03-14T05:04:00;100015.94;;;1.96;78.22
11672;BME280;5892;43.412;24.612;2023-03-14T05:06:31;99969.91;;;1.76;78.12
11672;BME280;5892;43.412;24.612;2023-03-14T05:09:13;99882.84;;;1.22;77.43
11672;BME280;5892;43.412;24.612;2023-03-14T05:11:44;99971.56;;;1.82;76.56
11672;BME280;5892;43.412;24.612;2023-03-14T05:14:12;99946.25;;;1.98;75.63
11672;BME280;5892;43.412;24.612;2023-03-14T05:16:43;99990.34;;;2.71;74.51
11672;BME280;5892;43.412;24.612;2023-03-14T05:19:10;99951.09;;;2.74;72.47
11672;BME280;5892;43.412;24.612;2023-03-14T05:21:38;100048.38;;;3.41;71.86
11672;BME280;5892;43.412;24.612;2023-03-14T05:24:35;99919.66;;;2.52;70.95
11672;BME280;5892;43.412;24.612;2023-03-14T05:27:02;99971.19;;;3.38;70.20
11672;BME280;5892;43.412;24.612;2023-03-14T05:29:30;99969.28;;;3.64;68.95
11672;BME280;5892;43.412;24.612;2023-03-14T05:31:59;99928.09;;;3.52;67.85
11672;BME280;5892;43.412;24.612;2023-03-14T05:34:35;100006.22;;;4.45;67.34
11672;BME280;5892;43.412;24.612;2023-03-14T05:37:03;99979.41;;;4.33;66.78
11672;BME280;5892;43.412;24.612;2023-03-14T05:39:30;99982.50;;;4.65;65.90
11672;BME280;5892;43.412;24.612;2023-03-14T05:42:00;99923.44;;;4.47;64.92
11672;BME280;5892;43.412;24.612;2023-03-14T05:44:28;99902.84;;;4.41;63.95
11672;BME280;5892;43.412;24.612;2023-03-14T05:46:56;100031.75;;;5.37;64.22
11672;BME280;5892;43.412;24.612;2023-03-14T05:49:26;100027.25;;;5.56;64.11
11672;BME280;5892;43.412;24.612;2023-03-14T05:51:53;100053.94;;;5.83;63.97
11672;BME280;5892;43.412;24.612;2023-03-14T05:54:21;100046.31;;;5.85;64.46
11672;BME280;5892;43.412;24.612;2023-03-14T05:56:48;100045.41;;;6.00;63.78
11672;BME280;5892;43.412;24.612;2023-03-14T05:59:25;99966.13;;;5.53;63.23
11672;BME280;5892;43.412;24.612;2023-03-14T06:01:53;100036.44;;;5.99;62.64
11672;BME280;5892;43.412;24.612;2023-03-14T06:04:20;100032.63;;;6.00;62.53
11672;BME280;5892;43.412;24.612;2023-03-14T06:06:47;99867.88;;;5.13;62.30
11672;BME280;5892;43.412;24.612;2023-03-14T06:09:15;99988.38;;;5.89;61.26
11672;BME280;5892;43.412;24.612;2023-03-14T06:11:45;99945.34;;;5.39;62.36
11672;BME280;5892;43.412;24.612;2023-03-14T06:14:12;100050.13;;;6.42;62.55
11672;BME280;5892;43.412;24.612;2023-03-14T06:16:42;100054.13;;;6.49;62.24
11672;BME280;5892;43.412;24.612;2023-03-14T06:19:09;99907.19;;;5.20;62.36
11672;BME280;5892;43.412;24.612;2023-03-14T06:21:37;100053.03;;;6.26;62.34
11672;BME280;5892;43.412;24.612;2023-03-14T06:24:04;100041.31;;;6.50;60.99
11672;BME280;5892;43.412;24.612;2023-03-14T06:26:32;99975.03;;;5.93;61.42
11672;BME280;5892;43.412;24.612;2023-03-14T06:29:00;100038.66;;;6.45;61.31
11672;BME280;5892;43.412;24.612;2023-03-14T06:31:29;99863.63;;;5.59;60.47
11672;BME280;5892;43.412;24.612;2023-03-14T06:33:59;99937.38;;;6.05;60.63
11672;BME280;5892;43.412;24.612;2023-03-14T06:36:26;100032.81;;;6.80;59.84
11672;BME280;5892;43.412;24.612;2023-03-14T06:38:53;99922.84;;;6.15;59.30
11672;BME280;5892;43.412;24.612;2023-03-14T06:41:21;99885.22;;;5.98;59.37
11672;BME280;5892;43.412;24.612;2023-03-14T06:43:55;99956.13;;;6.49;59.23
11672;BME280;5892;43.412;24.612;2023-03-14T06:46:23;99944.19;;;6.69;58.59
11672;BME280;5892;43.412;24.612;2023-03-14T06:48:52;100044.97;;;7.06;58.81
11672;BME280;5892;43.412;24.612;2023-03-14T06:51:28;100034.88;;;7.26;58.27
11672;BME280;5892;43.412;24.612;2023-03-14T06:53:56;100043.34;;;7.24;58.88
11672;BME280;5892;43.412;24.612;2023-03-14T06:56:24;99891.41;;;6.84;58.24
11672;BME280;5892;43.412;24.612;2023-03-14T06:58:51;99939.34;;;7.36;57.29
11672;BME280;5892;43.412;24.612;2023-03-14T07:01:21;100061.72;;;8.34;56.27
11672;BME280;5892;43.412;24.612;2023-03-14T07:03:50;99958.56;;;8.18;55.28
11672;BME280;5892;43.412;24.612;2023-03-14T07:06:17;100037.16;;;8.75;54.39
11672;BME280;5892;43.412;24.612;2023-03-14T07:08:48;99994.56;;;8.74;53.97
11672;BME280;5892;43.412;24.612;2023-03-14T07:11:15;99878.63;;;8.03;53.95
11672;BME280;5892;43.412;24.612;2023-03-14T07:13:42;99967.16;;;8.66;53.79
11672;BME280;5892;43.412;24.612;2023-03-14T07:16:10;99909.03;;;8.24;53.38
11672;BME280;5892;43.412;24.612;2023-03-14T07:18:38;100012.13;;;9.09;53.33
11672;BME280;5892;43.412;24.612;2023-03-14T07:21:05;99940.47;;;8.49;52.49
11672;BME280;5892;43.412;24.612;2023-03-14T07:23:34;99936.69;;;9.08;52.23
11672;BME280;5892;43.412;24.612;2023-03-14T07:26:03;100015.19;;;9.74;52.21
11672;BME280;5892;43.412;24.612;2023-03-14T07:28:31;99956.03;;;9.56;51.44
11672;BME280;5892;43.412;24.612;2023-03-14T07:30:57;99992.03;;;10.03;50.49
11672;BME280;5892;43.412;24.612;2023-03-14T07:33:25;100001.22;;;10.38;50.62
11672;BME280;5892;43.412;24.612;2023-03-14T07:35:53;100036.78;;;10.69;49.35
11672;BME280;5892;43.412;24.612;2023-03-14T07:38:20;99910.28;;;10.10;49.71
11672;BME280;5892;43.412;24.612;2023-03-14T07:40:49;100003.13;;;10.77;49.47
11672;BME280;5892;43.412;24.612;2023-03-14T07:43:18;99908.72;;;10.26;49.66
11672;BME280;5892;43.412;24.612;2023-03-14T07:45:45;100018.00;;;11.10;48.77
11672;BME280;5892;43.412;24.612;2023-03-14T07:48:13;100005.75;;;11.08;48.18
11672;BME280;5892;43.412;24.612;2023-03-14T07:50:40;100002.06;;;11.03;47.97
11672;BME280;5892;43.412;24.612;2023-03-14T07:53:07;99995.47;;;11.30;47.92
11672;BME280;5892;43.412;24.612;2023-03-14T07:55:34;100006.41;;;11.47;48.12
11672;BME280;5892;43.412;24.612;2023-03-14T07:58:01;99968.03;;;11.30;48.01
11672;BME280;5892;43.412;24.612;2023-03-14T08:00:31;99844.47;;;10.84;48.18
11672;BME280;5892;43.412;24.612;2023-03-14T08:02:58;99991.03;;;11.72;48.38
11672;BME280;5892;43.412;24.612;2023-03-14T08:05:26;99963.31;;;11.57;48.04
11672;BME280;5892;43.412;24.612;2023-03-14T08:07:53;99964.59;;;11.59;48.59
11672;BME280;5892;43.412;24.612;2023-03-14T08:10:21;99972.81;;;11.68;48.68
11672;BME280;5892;43.412;24.612;2023-03-14T08:12:48;99916.78;;;11.69;48.33
11672;BME280;5892;43.412;24.612;2023-03-14T08:15:15;99962.41;;;12.08;47.97
11672;BME280;5892;43.412;24.612;2023-03-14T08:17:47;99957.50;;;12.22;47.60
11672;BME280;5892;43.412;24.612;2023-03-14T08:20:16;99915.84;;;12.11;47.72
11672;BME280;5892;43.412;24.612;2023-03-14T08:22:44;99930.59;;;12.07;47.10
11672;BME280;5892;43.412;24.612;2023-03-14T08:25:11;99953.81;;;12.09;47.74
11672;BME280;5892;43.412;24.612;2023-03-14T08:27:38;99977.59;;;12.14;48.69
11672;BME280;5892;43.412;24.612;2023-03-14T08:30:08;99929.91;;;12.18;48.65
11672;BME280;5892;43.412;24.612;2023-03-14T08:32:36;99888.88;;;11.67;48.78
11672;BME280;5892;43.412;24.612;2023-03-14T08:35:06;99925.66;;;12.21;48.83
11672;BME280;5892;43.412;24.612;2023-03-14T08:37:33;99939.56;;;12.54;48.24
11672;BME280;5892;43.412;24.612;2023-03-14T08:40:01;99873.34;;;12.17;47.63
11672;BME280;5892;43.412;24.612;2023-03-14T08:42:32;99888.50;;;12.23;48.03
11672;BME280;5892;43.412;24.612;2023-03-14T08:45:14;99942.13;;;12.59;47.99
11672;BME280;5892;43.412;24.612;2023-03-14T08:48:00;99807.91;;;11.43;48.52
11672;BME280;5892;43.412;24.612;2023-03-14T08:50:29;99932.88;;;12.63;48.29
11672;BME280;5892;43.412;24.612;2023-03-14T08:52:56;99935.31;;;12.86;47.43
11672;BME280;5892;43.412;24.612;2023-03-14T08:55:25;99827.28;;;12.14;47.70
11672;BME280;5892;43.412;24.612;2023-03-14T08:57:52;99944.81;;;12.88;47.80
11672;BME280;5892;43.412;24.612;2023-03-14T09:00:20;99919.94;;;13.05;47.37
11672;BME280;5892;43.412;24.612;2023-03-14T09:02:47;99821.72;;;12.52;47.03
11672;BME280;5892;43.412;24.612;2023-03-14T09:05:14;99883.97;;;13.10;46.94
11672;BME280;5892;43.412;24.612;2023-03-14T09:07:43;99843.84;;;12.97;46.28
11672;BME280;5892;43.412;24.612;2023-03-14T09:10:11;99881.59;;;13.42;45.89
11672;BME280;5892;43.412;24.612;2023-03-14T09:12:38;99909.56;;;13.65;46.06
11672;BME280;5892;43.412;24.612;2023-03-14T09:15:06;99882.31;;;13.51;45.46
11672;BME280;5892;43.412;24.612;2023-03-14T09:17:33;99863.63;;;13.44;44.10
11672;BME280;5892;43.412;24.612;2023-03-14T09:20:00;99885.94;;;13.88;44.04
11672;BME280;5892;43.412;24.612;2023-03-14T09:22:31;99816.97;;;13.84;43.34
11672;BME280;5892;43.412;24.612;2023-03-14T09:25:08;99847.72;;;14.35;42.43
11672;BME280;5892;43.412;24.612;2023-03-14T09:27:49;99869.22;;;14.54;40.90
11672;BME280;5892;43.412;24.612;2023-03-14T09:30:16;99783.16;;;14.36;39.39
11672;BME280;5892;43.412;24.612;2023-03-14T09:32:46;99850.94;;;14.89;39.87
11672;BME280;5892;43.412;24.612;2023-03-14T09:35:13;99841.41;;;14.87;38.05
11672;BME280;5892;43.412;24.612;2023-03-14T09:37:40;99851.84;;;15.21;36.28
11672;BME280;5892;43.412;24.612;2023-03-14T09:40:13;99854.28;;;15.22;36.42
11672;BME280;5892;43.412;24.612;2023-03-14T09:42:42;99838.91;;;15.09;34.84
11672;BME280;5892;43.412;24.612;2023-03-14T09:45:12;99802.78;;;14.87;34.53
11672;BME280;5892;43.412;24.612;2023-03-14T09:47:41;99838.34;;;15.32;33.87
11672;BME280;5892;43.412;24.612;2023-03-14T09:50:13;99729.31;;;14.66;34.10
11672;BME280;5892;43.412;24.612;2023-03-14T09:52:42;99761.44;;;15.02;31.77
11672;BME280;5892;43.412;24.612;2023-03-14T09:55:16;99791.69;;;15.42;31.14
11672;BME280;5892;43.412;24.612;2023-03-14T09:57:45;99706.50;;;14.81;30.57
11672;BME280;5892;43.412;24.612;2023-03-14T10:00:33;99773.09;;;15.55;30.44
11672;BME280;5892;43.412;24.612;2023-03-14T10:03:20;99688.75;;;14.95;30.65
11672;BME280;5892;43.412;24.612;2023-03-14T10:05:48;99771.13;;;15.55;30.24
11672;BME280;5892;43.412;24.612;2023-03-14T10:08:15;99754.66;;;15.43;29.74
11672;BME280;5892;43.412;24.612;2023-03-14T10:10:44;99740.94;;;15.47;29.28
11672;BME280;5892;43.412;24.612;2023-03-14T10:13:16;99771.69;;;15.61;29.55
11672;BME280;5892;43.412;24.612;2023-03-14T10:15:47;99723.22;;;15.63;26.22
11672;BME280;5892;43.412;24.612;2023-03-14T10:18:34;99665.94;;;15.29;23.69
11672;BME280;5892;43.412;24.612;2023-03-14T10:21:04;99650.72;;;15.04;22.72
11672;BME280;5892;43.412;24.612;2023-03-14T10:23:33;99758.38;;;15.82;23.33
11672;BME280;5892;43.412;24.612;2023-03-14T10:26:08;99754.47;;;15.83;23.78
11672;BME280;5892;43.412;24.612;2023-03-14T10:28:41;99735.13;;;15.83;24.38
11672;BME280;5892;43.412;24.612;2023-03-14T10:31:10;99738.72;;;16.03;24.36
11672;BME280;5892;43.412;24.612;2023-03-14T10:33:38;99728.56;;;16.07;23.42
11672;BME280;5892;43.412;24.612;2023-03-14T10:36:14;99731.47;;;16.14;23.99
11672;BME280;5892;43.412;24.612;2023-03-14T10:39:22;99689.50;;;15.89;23.72
11672;BME280;5892;43.412;24.612;2023-03-14T10:42:20;99719.97;;;16.12;23.75
11672;BME280;5892;43.412;24.612;2023-03-14T10:44:53;99663.81;;;15.89;22.64
11672;BME280;5892;43.412;24.612;2023-03-14T10:47:23;99716.22;;;16.39;21.08
11672;BME280;5892;43.412;24.612;2023-03-14T10:49:51;99719.72;;;16.36;21.52
11672;BME280;5892;43.412;24.612;2023-03-14T10:52:21;99703.78;;;16.30;21.41
11672;BME280;5892;43.412;24.612;2023-03-14T10:54:56;99705.75;;;16.48;20.19
11672;BME280;5892;43.412;24.612;2023-03-14T10:57:26;99688.66;;;16.62;20.64
11672;BME280;5892;43.412;24.612;2023-03-14T10:59:55;99625.16;;;16.27;20.35
11672;BME280;5892;43.412;24.612;2023-03-14T11:02:40;99606.00;;;16.38;19.54
11672;BME280;5892;43.412;24.612;2023-03-14T11:05:22;99640.41;;;16.60;18.33
11672;BME280;5892;43.412;24.612;2023-03-14T11:07:52;99628.16;;;16.61;16.37
11672;BME280;5892;43.412;24.612;2023-03-14T11:10:28;99662.25;;;16.87;17.16
11672;BME280;5892;43.412;24.612;2023-03-14T11:13:11;99626.47;;;16.56;18.37
11672;BME280;5892;43.412;24.612;2023-03-14T11:15:51;99620.81;;;16.68;17.22
11672;BME280;5892;43.412;24.612;2023-03-14T11:18:53;99626.34;;;16.91;17.77
11672;BME280;5892;43.412;24.612;2023-03-14T11:21:29;99598.56;;;16.84;17.27
11672;BME280;5892;43.412;24.612;2023-03-14T11:24:21;99576.34;;;16.80;16.43
11672;BME280;5892;43.412;24.612;2023-03-14T11:26:56;99585.94;;;16.86;18.48
11672;BME280;5892;43.412;24.612;2023-03-14T11:29:36;99591.50;;;17.13;18.36
11672;BME280;5892;43.412;24.612;2023-03-14T11:32:12;99545.25;;;16.87;18.92
11672;BME280;5892;43.412;24.612;2023-03-14T11:34:45;99563.59;;;17.21;19.28
11672;BME280;5892;43.412;24.612;2023-03-14T11:37:22;99569.66;;;17.30;19.51
11672;BME280;5892;43.412;24.612;2023-03-14T11:39:57;99509.09;;;17.03;19.80
11672;BME280;5892;43.412;24.612;2023-03-14T11:42:28;99433.13;;;16.70;19.92
11672;BME280;5892;43.412;24.612;2023-03-14T11:45:00;99452.97;;;16.76;20.62
11672;BME280;5892;43.412;24.612;2023-03-14T11:47:30;99549.94;;;17.35;20.43
11672;BME280;5892;43.412;24.612;2023-03-14T11:50:03;99534.06;;;17.32;21.02
11672;BME280;5892;43.412;24.612;2023-03-14T11:52:58;99369.13;;;16.45;21.66
11672;BME280;5892;43.412;24.612;2023-03-14T11:55:31;99521.97;;;17.44;21.87
11672;BME280;5892;43.412;24.612;2023-03-14T11:58:01;99518.72;;;17.38;21.25
11672;BME280;5892;43.412;24.612;2023-03-14T12:00:38;99513.06;;;17.58;20.40
11672;BME280;5892;43.412;24.612;2023-03-14T12:03:13;99509.75;;;17.49;21.79
11672;BME280;5892;43.412;24.612;2023-03-14T12:05:53;99499.44;;;17.46;22.18
11672;BME280;5892;43.412;24.612;2023-03-14T12:08:34;99509.84;;;17.56;22.05
11672;BME280;5892;43.412;24.612;2023-03-14T12:11:32;99484.31;;;17.10;21.90
11672;BME280;5892;43.412;24.612;2023-03-14T12:14:02;99482.97;;;17.26;22.02
11672;BME280;5892;43.412;24.612;2023-03-14T12:16:36;99426.88;;;17.03;22.16
11672;BME280;5892;43.412;24.612;2023-03-14T12:19:37;99479.00;;;17.57;21.96
11672;BME280;5892;43.412;24.612;2023-03-14T12:22:23;99475.50;;;17.60;22.16
11672;BME280;5892;43.412;24.612;2023-03-14T12:24:56;99494.19;;;17.67;21.55
11672;BME280;5892;43.412;24.612;2023-03-14T12:28:05;99469.59;;;17.62;22.47
11672;BME280;5892;43.412;24.612;2023-03-14T12:30:42;99445.53;;;17.40;22.47
11672;BME280;5892;43.412;24.612;2023-03-14T12:33:32;99453.16;;;17.79;22.48
11672;BME280;5892;43.412;24.612;2023-03-14T12:36:03;99437.28;;;17.73;22.35
11672;BME280;5892;43.412;24.612;2023-03-14T12:38:54;99451.75;;;17.96;22.60
11672;BME280;5892;43.412;24.612;2023-03-14T12:41:27;99363.38;;;17.51;22.16
11672;BME280;5892;43.412;24.612;2023-03-14T12:43:56;99405.38;;;17.90;22.31
11672;BME280;5892;43.412;24.612;2023-03-14T12:46:24;99413.81;;;18.00;21.80
11672;BME280;5892;43.412;24.612;2023-03-14T12:49:03;99398.69;;;17.94;21.46
11672;BME280;5892;43.412;24.612;2023-03-14T12:51:58;99434.47;;;18.10;21.30
11672;BME280;5892;43.412;24.612;2023-03-14T12:54:33;99358.63;;;17.48;21.55
11672;BME280;5892;43.412;24.612;2023-03-14T12:57:16;99417.59;;;18.26;21.77
11672;BME280;5892;43.412;24.612;2023-03-14T12:59:50;99421.47;;;18.17;20.97
11672;BME280;5892;43.412;24.612;2023-03-14T13:02:22;99415.16;;;18.20;20.67
11672;BME280;5892;43.412;24.612;2023-03-14T13:05:01;99389.28;;;18.06;20.83
11672;BME280;5892;43.412;24.612;2023-03-14T13:07:35;99405.03;;;18.42;20.97
11672;BME280;5892;43.412;24.612;2023-03-14T13:10:16;99395.78;;;18.24;19.95
11672;BME280;5892;43.412;24.612;2023-03-14T13:12:48;99381.19;;;18.31;20.58
11672;BME280;5892;43.412;24.612;2023-03-14T13:15:38;99321.28;;;18.19;19.73
11672;BME280;5892;43.412;24.612;2023-03-14T13:18:11;99382.63;;;18.65;20.51
11672;BME280;5892;43.412;24.612;2023-03-14T13:20:45;99387.38;;;18.61;20.46
11672;BME280;5892;43.412;24.612;2023-03-14T13:23:23;99348.78;;;18.42;20.99
11672;BME280;5892;43.412;24.612;2023-03-14T13:25:51;99293.09;;;18.10;21.29
11672;BME280;5892;43.412;24.612;2023-03-14T13:28:20;99381.03;;;18.64;20.87
11672;BME280;5892;43.412;24.612;2023-03-14T13:30:49;99361.84;;;18.45;21.17
11672;BME280;5892;43.412;24.612;2023-03-14T13:33:18;99303.84;;;18.22;21.41
11672;BME280;5892;43.412;24.612;2023-03-14T13:35:53;99357.28;;;18.70;21.91